Time;durP1;ratioP1;P1;durP2;ratioP2;P2;SDS_P1;SDS_P2;PMS_P1;PMS_P2;Temp;Humidity;BMP_temperature;BMP_pressure;BME280_temperature;BME280_humidity;BME280_pressure;Samples;Min_cycle;Max_cycle;Signal;HPM_P1;HPM_P2
2022/05/19 00:02:26;;;;;;;8.75;4.45;;;;;;;8.63;54.27;99711.81;5033576;28;20065;-77
2022/05/19 00:04:54;;;;;;;10.18;4.45;;;;;;;8.59;54.17;99705.69;5033597;28;20060;-78
2022/05/19 00:07:21;;;;;;;9.02;4.65;;;;;;;8.77;53.96;99717.97;5033654;28;20145;-77
2022/05/19 00:09:49;;;;;;;8.35;4.28;;;;;;;8.74;53.70;99691.94;5033029;28;20056;-78
2022/05/19 00:12:22;;;;;;;13.60;4.15;;;;;;;8.95;53.86;99715.53;5033668;28;20053;-78
2022/05/19 00:14:51;;;;;;;8.32;4.18;;;;;;;8.96;54.15;99721.59;5033195;28;20059;-77
2022/05/19 00:17:18;;;;;;;9.35;3.97;;;;;;;8.94;53.50;99723.31;5033444;28;20057;-77
2022/05/19 00:19:45;;;;;;;8.10;4.30;;;;;;;8.87;53.93;99717.19;5032935;28;20470;-77
2022/05/19 00:22:15;;;;;;;9.20;4.13;;;;;;;8.91;53.74;99721.56;5033283;28;20057;-77
2022/05/19 00:24:44;;;;;;;10.93;4.63;;;;;;;8.97;53.96;99710.31;5033191;28;20578;-77
2022/05/19 00:27:14;;;;;;;5.30;3.93;;;;;;;8.80;54.06;99676.34;5033384;28;20148;-75
2022/05/19 00:29:42;;;;;;;10.00;4.03;;;;;;;8.76;54.40;99671.97;5032690;28;20107;-76
2022/05/19 00:32:12;;;;;;;11.52;4.15;;;;;;;8.91;54.78;99703.34;5033148;28;20052;-79
2022/05/19 00:34:41;;;;;;;10.60;4.60;;;;;;;8.87;54.62;99705.91;5032972;28;20053;-78
2022/05/19 00:37:09;;;;;;;10.57;5.13;;;;;;;8.83;54.50;99691.97;5033106;28;20076;-77
2022/05/19 00:39:37;;;;;;;10.32;5.97;;;;;;;8.88;54.53;99702.44;5032665;28;20494;-78
2022/05/19 00:44:53;;;;;;;16.98;8.32;;;;;;;8.82;54.91;99692.88;5035624;28;20107;-78
2022/05/19 00:47:25;;;;;;;13.45;8.27;;;;;;;8.68;55.26;99684.91;5034796;28;20085;-78
2022/05/19 00:49:52;;;;;;;20.13;9.73;;;;;;;8.69;55.47;99691.00;5033078;28;20096;-76
2022/05/19 00:52:25;;;;;;;18.23;10.77;;;;;;;8.80;55.57;99692.84;5032711;28;20053;-77
2022/05/19 00:55:05;;;;;;;17.20;10.00;;;;;;;8.85;54.70;99690.25;5033000;28;20053;-77
2022/05/19 00:57:40;;;;;;;14.75;9.48;;;;;;;8.86;55.14;99699.81;5015756;28;20061;-77
2022/05/19 01:00:12;;;;;;;15.57;7.90;;;;;;;8.88;55.37;99698.09;5032981;28;20507;-76
2022/05/19 01:02:45;;;;;;;14.23;7.82;;;;;;;8.84;55.36;99701.56;5033181;28;20077;-80
2022/05/19 01:05:19;;;;;;;10.50;6.13;;;;;;;8.81;55.77;99699.78;5038763;28;20092;-78
2022/05/19 01:08:13;;;;;;;13.90;6.32;;;;;;;8.84;55.66;99705.88;5038667;28;20061;-78
2022/05/19 01:10:42;;;;;;;11.25;5.65;;;;;;;8.82;55.49;99691.13;5039885;28;20075;-77
2022/05/19 01:13:13;;;;;;;9.93;5.60;;;;;;;8.87;55.58;99692.88;5036859;28;20076;-77
2022/05/19 01:15:45;;;;;;;9.25;5.03;;;;;;;8.65;55.77;99677.09;5036928;28;20087;-76
2022/05/19 01:18:16;;;;;;;7.43;4.90;;;;;;;8.76;56.30;99705.84;5036903;28;20057;-76
2022/05/19 01:20:46;;;;;;;9.55;4.80;;;;;;;8.77;56.66;99708.44;5019038;28;20060;-76
2022/05/19 01:23:40;;;;;;;6.93;4.50;;;;;;;8.84;56.20;99705.88;5036691;28;20087;-77
2022/05/19 01:26:39;;;;;;;10.07;4.47;;;;;;;8.88;56.02;99687.66;5036670;28;20057;-77
2022/05/19 01:29:09;;;;;;;7.18;4.57;;;;;;;8.94;55.95;99697.28;5037475;28;20127;-77
2022/05/19 01:31:47;;;;;;;7.63;4.30;;;;;;;9.02;55.73;99691.25;5040944;28;20116;-77
2022/05/19 01:34:17;;;;;;;6.53;4.68;;;;;;;8.88;56.12;99665.97;5040551;28;20049;-76
2022/05/19 01:36:45;;;;;;;10.73;4.47;;;;;;;9.06;56.05;99696.50;5039584;28;20057;-76
2022/05/19 01:39:23;;;;;;;11.23;5.03;;;;;;;9.08;56.09;99687.84;5018956;28;20076;-76
2022/05/19 01:42:04;;;;;;;7.45;4.35;;;;;;;9.15;55.89;99691.34;5036269;28;20064;-77
2022/05/19 01:44:45;;;;;;;8.40;4.53;;;;;;;9.22;55.92;99687.91;5036157;28;20573;-76
2022/05/19 01:47:26;;;;;;;9.95;4.38;;;;;;;9.27;55.86;99688.81;5035958;28;20538;-78
2022/05/19 01:50:12;;;;;;;10.05;4.32;;;;;;;9.22;55.50;99685.31;5035926;28;20057;-78
2022/05/19 01:52:59;;;;;;;7.28;4.20;;;;;;;9.39;55.58;99680.19;5035854;28;20054;-76
2022/05/19 01:55:39;;;;;;;6.70;4.10;;;;;;;9.52;55.54;99687.19;5036161;28;20060;-76
2022/05/19 01:58:25;;;;;;;8.50;4.45;;;;;;;9.62;55.04;99672.47;5035573;28;20520;-76
2022/05/19 02:00:59;;;;;;;7.15;4.57;;;;;;;9.86;54.39;99686.47;5035527;28;20439;-77
2022/05/19 02:03:33;;;;;;;9.35;4.65;;;;;;;9.97;55.13;99675.19;5035734;28;20144;-77
2022/05/19 02:06:06;;;;;;;8.85;4.93;;;;;;;10.11;53.88;99692.63;5035531;28;20091;-77
2022/05/19 02:08:51;;;;;;;8.73;4.35;;;;;;;10.14;54.39;99688.28;5035549;28;20065;-76
2022/05/19 02:11:28;;;;;;;8.43;4.30;;;;;;;10.23;54.21;99684.84;5003832;28;20153;-77
2022/05/19 02:14:03;;;;;;;6.60;4.10;;;;;;;10.35;54.07;99694.47;5015749;28;20050;-78
2022/05/19 02:16:31;;;;;;;5.43;4.00;;;;;;;10.34;54.10;99695.31;4998194;28;20539;-78
2022/05/19 02:18:59;;;;;;;6.15;3.90;;;;;;;10.36;54.06;99683.16;5015472;28;20519;-77
2022/05/19 02:21:28;;;;;;;8.48;4.25;;;;;;;10.56;53.32;99680.53;5015203;28;20570;-77
2022/05/19 02:24:01;;;;;;;7.15;4.50;;;;;;;11.34;52.04;99683.09;5015354;28;20045;-78
2022/05/19 02:26:33;;;;;;;15.70;5.40;;;;;;;12.61;48.42;99678.13;5015839;28;20084;-78
2022/05/19 02:29:06;;;;;;;7.10;3.80;;;;;;;14.30;45.24;99674.50;5015604;28;20089;-77
2022/05/19 02:31:36;;;;;;;7.80;4.10;;;;;;;15.86;41.45;99635.75;5015636;28;20050;-77
2022/05/19 02:34:04;;;;;;;7.68;3.80;;;;;;;17.39;38.68;99665.38;5015538;28;20054;-76
2022/05/19 02:36:31;;;;;;;7.47;3.67;;;;;;;19.51;35.12;99662.22;4998239;28;20081;-78
2022/05/19 02:39:01;;;;;;;6.43;3.60;;;;;;;19.44;34.41;99656.28;5015393;28;20065;-78
2022/05/19 02:41:28;;;;;;;7.40;4.13;;;;;;;17.85;36.88;99672.94;5015510;28;20046;-77
2022/05/19 02:43:57;;;;;;;8.50;4.72;;;;;;;16.76;39.19;99671.44;5015171;28;20061;-78
2022/05/19 02:46:26;;;;;;;9.65;4.15;;;;;;;19.86;33.98;99645.06;5014763;28;20431;-78
2022/05/19 02:48:58;;;;;;;7.68;3.92;;;;;;;22.65;29.67;99645.28;5015092;28;20507;-77
2022/05/19 02:51:26;;;;;;;6.22;3.60;;;;;;;24.66;26.97;99641.63;5015379;28;20092;-77
2022/05/19 02:53:56;;;;;;;6.40;3.75;;;;;;;26.39;24.47;99644.41;5015105;28;20058;-77
2022/05/19 02:56:22;;;;;;;6.63;3.50;;;;;;;27.42;22.97;99627.63;5015717;28;20054;-77
2022/05/19 02:58:49;;;;;;;5.03;3.30;;;;;;;28.25;21.74;99610.94;5018010;28;20049;-77
2022/05/19 03:01:17;;;;;;;7.38;3.65;;;;;;;29.11;20.89;99590.19;4997367;28;20058;-78
2022/05/19 03:03:44;;;;;;;8.20;3.67;;;;;;;29.44;20.26;99585.81;5014720;28;20076;-76
2022/05/19 03:06:11;;;;;;;5.88;4.03;;;;;;;29.42;20.47;99607.44;5014713;28;20061;-77
2022/05/19 03:08:38;;;;;;;8.77;3.60;;;;;;;30.27;19.62;99617.69;5014772;28;20053;-77
2022/05/19 03:11:06;;;;;;;7.85;3.50;;;;;;;30.85;18.92;99606.56;5026106;28;20507;-76
2022/05/19 03:13:34;;;;;;;;;;;;;;;31.82;20.93;99612.53;5034689;28;20491;-78
2022/05/19 03:16:07;;;;;;;8.45;3.50;;;;;;;32.22;17.64;99617.06;5034224;28;19951;-77
2022/05/19 03:18:34;;;;;;;7.43;3.33;;;;;;;31.40;18.30;99609.03;5034522;28;20079;-78
2022/05/19 03:21:02;;;;;;;7.00;3.70;;;;;;;31.90;17.82;99613.66;5034374;28;20072;-77
2022/05/19 03:23:31;;;;;;;4.43;3.13;;;;;;;32.35;17.16;99622.22;5034135;28;20053;-79
2022/05/19 03:25:57;;;;;;;8.90;3.25;;;;;;;28.69;20.11;99627.41;5016351;28;20088;-75
2022/05/19 03:28:25;;;;;;;8.20;4.35;;;;;;;24.91;23.98;99613.50;5034261;28;20050;-76
2022/05/19 03:30:54;;;;;;;3.63;3.15;;;;;;;22.97;26.61;99632.13;5033779;28;20092;-77
2022/05/19 03:33:22;;;;;;;5.50;3.70;;;;;;;21.43;28.89;99618.22;5032949;28;20057;-78
2022/05/19 03:36:01;;;;;;;6.80;3.40;;;;;;;20.01;30.15;99636.50;5016381;28;20497;-78
2022/05/19 03:38:30;;;;;;;8.52;3.65;;;;;;;18.81;32.74;99638.19;5034155;28;20088;-77
2022/05/19 03:40:57;;;;;;;5.47;3.65;;;;;;;17.93;34.18;99649.81;5034086;28;20148;-78
2022/05/19 03:43:26;;;;;;;5.85;3.58;;;;;;;17.24;35.20;99639.41;5034019;28;20605;-78
2022/05/19 03:45:53;;;;;;;5.82;3.60;;;;;;;17.01;35.72;99628.63;5016246;28;20088;-78
2022/05/19 03:48:23;;;;;;;5.25;3.40;;;;;;;16.81;36.02;99619.44;5033745;28;20053;-80
2022/05/19 03:50:50;;;;;;;4.90;3.38;;;;;;;16.83;36.16;99609.72;5033635;28;20080;-78
2022/05/19 03:53:17;;;;;;;5.10;3.38;;;;;;;18.32;33.67;99589.53;5033574;28;20088;-79
2022/05/19 03:55:45;;;;;;;8.48;3.67;;;;;;;22.18;28.41;99597.03;5033570;28;20059;-78
2022/05/19 03:58:12;;;;;;;4.00;2.97;;;;;;;25.38;24.35;99584.81;5033546;28;20123;-78
2022/05/19 04:00:42;;;;;;;5.32;3.30;;;;;;;25.31;24.11;99587.03;5033749;28;20061;-79
2022/05/19 04:03:09;;;;;;;6.35;3.22;;;;;;;23.36;26.41;99599.06;5033503;28;20057;-79
2022/05/19 04:05:36;;;;;;;6.15;3.20;;;;;;;21.52;28.42;99610.78;5033471;28;20531;-76
2022/05/19 04:08:03;;;;;;;6.80;3.20;;;;;;;19.89;30.91;99615.78;5033243;28;20141;-79
2022/05/19 04:10:31;;;;;;;3.45;3.00;;;;;;;18.04;33.48;99620.41;5033588;28;20069;-78
2022/05/19 04:12:59;;;;;;;8.20;3.50;;;;;;;16.95;35.66;99621.72;5033226;28;20057;-78
2022/05/19 04:15:30;;;;;;;5.47;2.90;;;;;;;16.58;36.59;99625.28;5010464;28;20110;-78
2022/05/19 04:17:57;;;;;;;8.95;3.20;;;;;;;16.37;36.69;99630.19;5015677;28;20115;-78
2022/05/19 04:20:29;;;;;;;7.55;3.10;;;;;;;15.99;37.55;99622.31;5021205;28;20152;-78
2022/05/19 04:23:00;;;;;;;10.95;3.78;;;;;;;15.63;37.95;99619.53;5013357;28;20482;-79
2022/05/19 04:25:29;;;;;;;9.40;3.80;;;;;;;15.44;38.82;99630.44;5021102;28;20045;-78
2022/05/19 04:27:57;;;;;;;6.72;3.90;;;;;;;15.23;38.81;99621.22;5031663;28;20140;-79
2022/05/19 04:30:26;;;;;;;5.45;3.13;;;;;;;15.19;39.18;99653.75;5033039;28;20099;-78
2022/05/19 04:32:53;;;;;;;3.53;2.95;;;;;;;14.84;39.57;99628.97;5027715;28;20095;-77
2022/05/19 04:35:20;;;;;;;4.13;3.20;;;;;;;14.85;39.99;99640.34;5014725;28;20219;-76
2022/05/19 04:37:48;;;;;;;5.90;3.20;;;;;;;14.76;39.89;99619.47;5013178;28;20057;-78
2022/05/19 04:40:18;;;;;;;8.43;3.50;;;;;;;14.80;40.30;99648.31;5014841;28;20054;-77
2022/05/19 04:42:46;;;;;;;5.38;3.50;;;;;;;14.65;40.22;99635.44;5013617;28;20065;-77
2022/05/19 04:45:17;;;;;;;5.80;3.25;;;;;;;14.78;40.27;99659.72;4981519;28;20543;-79
2022/05/19 04:47:44;;;;;;;7.50;3.38;;;;;;;14.78;40.37;99655.34;5022128;28;20050;-79
2022/05/19 04:50:12;;;;;;;5.63;3.28;;;;;;;14.67;41.12;99659.91;5039143;28;20107;-80
2022/05/19 04:52:40;;;;;;;6.72;3.40;;;;;;;14.60;41.32;99674.91;5043420;28;20117;-80
2022/05/19 04:55:09;;;;;;;8.95;3.63;;;;;;;14.47;42.17;99663.69;5028571;28;20053;-77
2022/05/19 04:57:37;;;;;;;6.18;3.55;;;;;;;14.44;42.10;99662.91;5012946;28;20050;-77
2022/05/19 05:00:09;;;;;;;5.40;3.70;;;;;;;14.49;42.13;99668.94;5013625;28;20487;-77
2022/05/19 05:02:38;;;;;;;5.53;3.65;;;;;;;14.35;42.79;99671.78;5013244;28;20054;-76
2022/05/19 05:05:10;;;;;;;5.40;3.38;;;;;;;14.14;42.94;99678.22;5013011;28;20516;-77
2022/05/19 05:07:37;;;;;;;5.22;3.33;;;;;;;13.78;43.64;99684.81;5012305;28;20141;-77
2022/05/19 05:10:05;;;;;;;4.97;3.30;;;;;;;13.47;44.08;99679.94;5014142;28;20066;-77
2022/05/19 05:12:35;;;;;;;5.78;2.78;;;;;;;13.41;44.70;99694.00;5013049;28;20054;-78
2022/05/19 05:15:04;;;;;;;9.15;3.75;;;;;;;13.45;45.41;99690.44;4994613;28;20071;-77
2022/05/19 05:17:31;;;;;;;4.80;3.40;;;;;;;13.61;46.18;99683.25;5014245;28;20518;-77
2022/05/19 05:19:58;;;;;;;8.00;4.00;;;;;;;13.76;45.75;99690.06;5023193;28;20054;-78
2022/05/19 05:22:27;;;;;;;7.00;4.22;;;;;;;13.65;46.95;99673.59;5032392;28;20054;-77
2022/05/19 05:24:55;;;;;;;4.32;3.55;;;;;;;13.51;47.26;99697.41;5012370;28;20148;-77
2022/05/19 05:27:22;;;;;;;5.95;3.83;;;;;;;13.39;47.94;99682.63;5012522;28;20053;-77
2022/05/19 05:29:51;;;;;;;7.07;3.40;;;;;;;13.45;47.35;99692.22;5013742;28;20530;-77
2022/05/19 05:32:19;;;;;;;7.13;3.95;;;;;;;13.39;48.18;99692.28;5021035;28;20500;-79
2022/05/19 05:34:48;;;;;;;9.27;3.63;;;;;;;13.33;48.82;99685.31;5012451;28;20054;-78
2022/05/19 05:37:14;;;;;;;7.72;4.35;;;;;;;13.25;49.50;99692.38;5012264;28;20526;-77
2022/05/19 05:39:42;;;;;;;9.35;4.30;;;;;;;13.11;49.72;99695.13;5012445;28;20115;-77
2022/05/19 05:42:11;;;;;;;5.10;3.90;;;;;;;12.89;50.32;99689.22;5012121;28;20128;-77
2022/05/19 05:44:38;;;;;;;4.72;4.10;;;;;;;12.87;50.76;99697.09;5012443;28;20056;-77
2022/05/19 05:47:05;;;;;;;9.18;4.53;;;;;;;13.01;51.58;99675.13;5012659;28;20507;-76
2022/05/19 05:49:32;;;;;;;7.68;4.65;;;;;;;13.27;51.93;99699.38;5012932;28;20057;-78
2022/05/19 05:52:00;;;;;;;7.25;4.35;;;;;;;13.12;52.77;99699.53;5012285;28;20140;-77
2022/05/19 05:54:29;;;;;;;7.90;4.27;;;;;;;12.89;52.76;99697.97;5012695;28;20046;-77
2022/05/19 05:56:57;;;;;;;8.95;4.75;;;;;;;12.97;54.66;99710.13;4996164;28;20296;-76
2022/05/19 05:59:24;;;;;;;9.98;4.40;;;;;;;12.87;54.02;99704.09;5016057;28;20050;-77
2022/05/19 06:01:51;;;;;;;6.93;4.70;;;;;;;12.82;54.97;99705.88;5016103;28;20144;-77
2022/05/19 06:04:20;;;;;;;7.95;4.57;;;;;;;12.91;54.48;99700.56;5016032;28;20537;-77
2022/05/19 06:06:47;;;;;;;9.13;4.70;;;;;;;12.72;54.84;99678.88;5017662;28;20088;-76
2022/05/19 06:09:14;;;;;;;10.23;5.20;;;;;;;12.81;55.75;99709.41;5015871;28;20050;-78
2022/05/19 06:11:42;;;;;;;9.07;4.90;;;;;;;12.80;56.02;99692.81;5020364;28;20069;-76
2022/05/19 06:14:11;;;;;;;9.35;5.07;;;;;;;12.81;55.94;99685.81;5016014;28;20062;-76
2022/05/19 06:16:38;;;;;;;9.35;5.22;;;;;;;12.90;55.56;99681.31;5015861;28;20053;-76
2022/05/19 06:19:05;;;;;;;8.45;5.35;;;;;;;13.10;56.25;99706.53;5015641;28;20073;-77
2022/05/19 06:21:36;;;;;;;9.68;4.47;;;;;;;13.15;56.24;99685.50;5016374;28;20093;-77
2022/05/19 06:24:08;;;;;;;7.10;4.38;;;;;;;13.29;54.70;99702.88;5015861;28;20049;-77
2022/05/19 06:26:39;;;;;;;11.25;4.60;;;;;;;13.29;54.77;99670.50;4998305;28;20055;-76
2022/05/19 06:29:09;;;;;;;7.05;5.10;;;;;;;13.67;54.30;99696.31;5015481;28;20116;-78
2022/05/19 06:31:37;;;;;;;13.40;5.55;;;;;;;13.74;54.99;99697.09;5015702;28;20046;-76
2022/05/19 06:34:06;;;;;;;11.88;5.18;;;;;;;13.61;54.64;99685.88;5015597;28;20046;-76
2022/05/19 06:36:33;;;;;;;8.13;5.15;;;;;;;13.66;54.70;99691.97;5015826;28;20057;-76
2022/05/19 06:39:00;;;;;;;7.80;5.25;;;;;;;13.53;55.33;99698.25;5015051;28;20434;-76
2022/05/19 06:44:17;;;;;;;9.80;5.30;;;;;;;13.07;56.48;99688.19;5015604;28;20049;-77
2022/05/19 06:46:45;;;;;;;10.73;5.65;;;;;;;13.21;57.06;99704.66;5015744;28;20054;-79
2022/05/19 06:49:13;;;;;;;5.10;4.20;;;;;;;13.38;56.03;99683.53;5016986;28;20060;-78
2022/05/19 06:51:41;;;;;;;7.53;4.63;;;;;;;13.60;56.00;99689.41;5006853;28;20069;-78
2022/05/19 06:54:08;;;;;;;8.25;4.90;;;;;;;13.40;56.22;99701.88;5004182;28;20058;-77
2022/05/19 06:56:36;;;;;;;6.18;4.40;;;;;;;13.02;56.41;99700.47;5019495;28;20054;-78
2022/05/19 06:59:05;;;;;;;9.23;4.90;;;;;;;12.50;57.94;99705.25;5017540;28;20057;-77
2022/05/19 07:01:34;;;;;;;10.95;5.05;;;;;;;12.27;59.98;99687.06;5016843;28;20053;-78
2022/05/19 07:04:02;;;;;;;;;;;;;;;11.92;59.06;99696.88;5015257;28;20050;-78
2022/05/19 07:06:29;;;;;;;10.90;4.93;;;;;;;11.85;60.16;99703.81;5014644;28;19961;-77
2022/05/19 07:08:56;;;;;;;11.77;5.50;;;;;;;11.70;60.95;99696.91;5014809;28;20073;-79
2022/05/19 07:11:24;;;;;;;11.35;4.82;;;;;;;11.64;61.90;99674.28;5014003;28;20062;-77
2022/05/19 07:13:59;;;;;;;7.47;4.70;;;;;;;11.80;61.51;99667.22;4982453;28;20467;-77
2022/05/19 07:16:27;;;;;;;10.10;5.10;;;;;;;12.08;60.05;99690.66;4997262;28;20049;-76
2022/05/19 07:21:44;;;;;;;8.10;5.82;;;;;;;12.23;61.69;99705.44;5015053;28;20054;-78
2022/05/19 07:24:16;;;;;;;9.77;4.90;;;;;;;12.35;60.74;99713.22;5015292;28;20050;-77
2022/05/19 07:26:48;;;;;;;6.60;4.60;;;;;;;12.34;61.15;99710.59;5014377;28;20549;-77
2022/05/19 07:29:18;;;;;;;8.48;5.20;;;;;;;12.43;61.06;99706.19;5014661;28;20491;-78
2022/05/19 07:31:49;;;;;;;8.82;4.70;;;;;;;12.51;61.00;99700.88;5014339;28;20057;-77
2022/05/19 07:34:21;;;;;;;8.15;4.68;;;;;;;12.50;60.47;99701.78;5013982;28;20068;-77
2022/05/19 07:36:48;;;;;;;6.35;4.57;;;;;;;12.42;60.79;99675.63;5014040;28;20050;-76
2022/05/19 07:39:15;;;;;;;6.45;4.63;;;;;;;12.60;60.38;99685.06;5014089;28;20045;-77
2022/05/19 07:41:43;;;;;;;8.68;4.97;;;;;;;12.83;60.21;99700.63;5014029;28;20116;-77
2022/05/19 07:44:12;;;;;;;6.53;4.40;;;;;;;12.96;59.47;99671.69;5013559;28;20565;-76
2022/05/19 07:46:39;;;;;;;6.88;4.63;;;;;;;13.09;58.85;99691.66;5013919;28;20585;-77
2022/05/19 07:49:09;;;;;;;7.43;4.63;;;;;;;13.21;59.55;99685.44;5013750;28;20466;-77
2022/05/19 07:51:40;;;;;;;11.95;4.60;;;;;;;13.65;58.66;99684.97;5013538;28;20108;-77
2022/05/19 07:54:26;;;;;;;8.77;5.00;;;;;;;14.13;58.61;99682.59;5013700;28;20057;-77
2022/05/19 07:56:57;;;;;;;7.68;5.28;;;;;;;14.87;55.45;99676.22;5014141;28;20144;-76
2022/05/19 07:59:28;;;;;;;7.55;4.55;;;;;;;15.09;54.70;99671.44;5013785;28;20458;-75
2022/05/19 08:01:56;;;;;;;8.40;4.80;;;;;;;15.24;53.70;99667.66;5013658;28;20062;-76
2022/05/19 08:04:26;;;;;;;9.15;5.10;;;;;;;15.30;53.34;99670.19;5013136;28;20050;-77
2022/05/19 08:06:56;;;;;;;8.63;5.00;;;;;;;15.51;52.43;99644.38;5013883;28;20054;-76
2022/05/19 08:12:18;;;;;;;11.38;5.38;;;;;;;15.87;50.88;99668.22;5012838;28;20054;-75
2022/05/19 08:17:31;;;;;;;7.75;4.97;;;;;;;15.91;51.65;99665.47;5003341;28;20054;-76
2022/05/19 08:19:59;;;;;;;6.78;4.97;;;;;;;15.74;51.73;99660.59;5003989;28;20115;-78
2022/05/19 08:22:30;;;;;;;9.80;5.10;;;;;;;15.71;51.59;99665.91;5004619;28;20057;-78
2022/05/19 08:24:58;;;;;;;7.60;4.80;;;;;;;15.36;51.92;99646.38;5005874;28;20045;-76
2022/05/19 08:27:25;;;;;;;6.22;4.55;;;;;;;14.99;52.10;99669.88;5009517;28;20516;-78
2022/05/19 08:29:52;;;;;;;5.75;4.28;;;;;;;14.74;52.88;99664.19;5006594;28;20053;-78
2022/05/19 08:32:21;;;;;;;4.47;3.90;;;;;;;14.54;52.66;99669.75;5006405;28;20144;-78
2022/05/19 08:34:48;;;;;;;5.75;4.10;;;;;;;14.57;52.43;99672.34;5007522;28;20146;-77
2022/05/19 08:37:19;;;;;;;9.38;5.90;;;;;;;14.97;52.33;99665.53;5003594;28;20063;-78
2022/05/19 08:39:49;;;;;;;9.70;4.80;;;;;;;15.17;51.80;99662.56;5002443;28;20108;-78
2022/05/19 08:42:20;;;;;;;6.85;4.50;;;;;;;15.03;52.12;99668.06;5001826;28;20053;-78
2022/05/19 08:44:54;;;;;;;6.70;5.00;;;;;;;14.74;51.67;99674.72;5002979;28;20092;-77
2022/05/19 08:47:28;;;;;;;8.68;4.70;;;;;;;14.58;52.25;99660.91;5001444;28;20058;-75
2022/05/19 08:50:04;;;;;;;7.55;4.80;;;;;;;14.48;52.68;99648.81;4984360;28;20053;-79
2022/05/19 08:52:47;;;;;;;6.70;4.25;;;;;;;14.51;52.59;99656.63;5001542;28;20053;-78
2022/05/19 08:55:21;;;;;;;7.35;4.22;;;;;;;14.67;52.92;99662.53;5003796;28;20096;-77
2022/05/19 08:58:20;;;;;;;7.13;4.50;;;;;;;14.57;52.10;99667.09;4997919;28;20409;-78
2022/05/19 09:00:54;;;;;;;9.48;5.63;;;;;;;14.22;53.24;99655.34;5003696;28;20049;-78
2022/05/19 09:04:04;;;;;;;10.05;4.65;;;;;;;14.19;53.67;99672.88;4994894;28;20459;-77
2022/05/19 09:07:56;;;;;;;;;;;;;;;13.89;54.06;99668.03;4964128;28;20579;-77
2022/05/19 09:09:58;;;;;;;7.38;4.43;;;;;;;13.74;53.70;99662.97;4992905;28;20311;-76
2022/05/19 09:12:32;;;;;;;6.35;3.80;;;;;;;13.60;54.19;99636.91;4993117;28;20058;-76
2022/05/19 09:15:03;;;;;;;11.63;4.68;;;;;;;13.80;53.73;99667.28;4993382;28;20198;-76
2022/05/19 09:17:37;;;;;;;7.65;4.43;;;;;;;13.59;54.01;99637.78;4992988;28;20050;-77
2022/05/19 09:20:12;;;;;;;6.57;3.97;;;;;;;14.09;52.37;99662.53;4993087;28;20117;-78
2022/05/19 09:22:41;;;;;;;7.60;4.13;;;;;;;14.28;52.25;99652.63;4993145;28;20109;-77
2022/05/19 09:25:14;;;;;;;9.80;4.32;;;;;;;14.21;51.71;99645.69;4992758;28;20086;-78
2022/05/19 09:27:43;;;;;;;7.25;4.47;;;;;;;14.11;51.83;99636.22;4993316;28;20073;-77
2022/05/19 09:30:33;;;;;;;8.30;4.70;;;;;;;14.08;51.76;99650.25;4993093;28;20148;-78
2022/05/19 09:33:15;;;;;;;10.45;4.25;;;;;;;13.92;52.20;99660.13;4996653;28;20054;-79
2022/05/19 09:35:49;;;;;;;8.07;4.40;;;;;;;14.01;51.97;99650.38;4997216;28;20054;-78
2022/05/19 09:38:25;;;;;;;9.65;4.55;;;;;;;14.16;52.20;99639.66;4997050;28;20050;-81
2022/05/19 09:41:22;;;;;;;9.63;4.13;;;;;;;14.53;51.53;99636.44;4999759;28;20061;-80
2022/05/19 09:43:54;;;;;;;7.13;4.43;;;;;;;14.93;50.44;99633.19;4982042;28;20530;-78
2022/05/19 09:46:22;;;;;;;8.63;3.85;;;;;;;15.20;49.20;99616.00;4996349;28;20108;-79
2022/05/19 09:49:03;;;;;;;7.25;3.42;;;;;;;15.22;48.31;99608.09;4985912;28;20466;-79
2022/05/19 09:51:44;;;;;;;7.47;3.58;;;;;;;15.18;47.89;99609.91;4996525;28;20058;-77
2022/05/19 09:54:14;;;;;;;11.38;4.13;;;;;;;15.28;48.53;99618.50;4997203;28;20113;-81
2022/05/19 09:56:52;;;;;;;9.93;3.53;;;;;;;15.55;48.32;99612.69;4996992;28;20086;-79
2022/05/19 09:59:23;;;;;;;5.93;3.53;;;;;;;15.77;47.11;99583.28;4996255;28;20058;-79
2022/05/19 10:02:04;;;;;;;5.93;3.50;;;;;;;16.13;46.33;99602.66;4996328;28;20050;-78
2022/05/19 10:04:39;;;;;;;4.40;3.15;;;;;;;16.39;45.71;99598.53;4995859;28;20397;-77
2022/05/19 10:07:19;;;;;;;5.20;3.30;;;;;;;16.65;44.62;99586.44;4996409;28;20145;-78
2022/05/19 10:09:47;;;;;;;3.42;2.70;;;;;;;16.71;43.63;99604.72;5003703;28;20558;-77
2022/05/19 10:12:22;;;;;;;4.90;3.10;;;;;;;16.61;44.29;99611.16;5018951;28;20054;-77
2022/05/19 10:15:00;;;;;;;6.53;3.10;;;;;;;16.20;45.26;99619.19;5015656;28;20388;-77
2022/05/19 10:17:54;;;;;;;3.83;2.93;;;;;;;16.04;46.03;99623.06;5015822;28;20050;-78
2022/05/19 10:20:30;;;;;;;6.20;3.38;;;;;;;15.83;46.58;99613.84;5015542;28;20526;-77
2022/05/19 10:23:52;;;;;;;5.78;3.70;;;;;;;15.92;45.92;99605.78;5015582;28;20096;-77
2022/05/19 10:26:37;;;;;;;4.03;2.42;;;;;;;16.07;45.59;99599.28;4997214;28;20144;-76
2022/05/19 10:32:53;;;;;;;3.65;2.80;;;;;;;16.80;43.29;99583.44;5014993;28;20504;-78
2022/05/19 10:35:40;;;;;;;5.45;3.30;;;;;;;16.49;43.83;99597.38;5015521;28;20409;-77
2022/05/19 10:39:00;;;;;;;5.90;3.00;;;;;;;16.00;44.75;99584.50;5015749;28;20058;-77
2022/05/19 10:41:48;;;;;;;4.50;2.88;;;;;;;15.76;45.57;99582.38;5019240;28;20141;-76
2022/05/19 10:44:41;;;;;;;7.20;2.88;;;;;;;15.88;45.33;99583.03;5015169;28;20049;-76
2022/05/19 10:47:46;;;;;;;4.68;2.80;;;;;;;15.99;44.94;99581.03;5015295;28;20054;-77
2022/05/19 10:50:24;;;;;;;3.45;3.03;;;;;;;16.22;44.32;99582.22;5014711;28;20050;-78
2022/05/19 10:53:26;;;;;;;5.43;3.00;;;;;;;16.42;44.08;99573.84;5014406;28;20057;-77
2022/05/19 10:56:20;;;;;;;6.75;3.15;;;;;;;17.19;42.95;99560.38;5023768;28;20060;-80
2022/05/19 10:59:05;;;;;;;3.45;3.10;;;;;;;17.24;41.78;99568.16;5026123;28;20054;-79
2022/05/19 11:01:57;;;;;;;6.63;2.65;;;;;;;17.38;42.00;99567.78;5014723;28;20145;-77
2022/05/19 11:04:59;;;;;;;4.13;3.05;;;;;;;17.61;41.73;99557.34;5015001;28;20148;-78
2022/05/19 11:08:05;;;;;;;3.13;2.65;;;;;;;17.56;40.61;99547.88;5015076;28;20081;-77
2022/05/19 11:10:44;;;;;;;6.78;2.63;;;;;;;17.14;40.24;99559.66;5017501;28;20073;-79
2022/05/19 11:13:53;;;;;;;2.70;2.50;;;;;;;16.76;41.01;99555.38;5019884;28;20152;-77
2022/05/19 11:16:32;;;;;;;3.15;2.50;;;;;;;16.82;41.35;99551.72;5014640;28;20081;-78
2022/05/19 11:19:36;;;;;;;6.87;2.90;;;;;;;17.06;41.57;99540.53;5014585;28;20050;-77
2022/05/19 11:22:13;;;;;;;6.20;3.10;;;;;;;16.94;40.93;99556.69;5014726;28;20049;-77
2022/05/19 11:26:23;;;;;;;7.03;2.40;;;;;;;17.22;40.79;99551.50;5014481;28;20054;-77
2022/05/19 11:27:38;;;;;;;2.92;2.30;;;;;;;17.49;40.65;99567.44;5014281;28;20082;-78
2022/05/19 11:30:14;;;;;;;3.67;2.03;;;;;;;17.27;39.08;99570.72;5014931;28;20050;-79
2022/05/19 11:32:47;;;;;;;3.83;2.22;;;;;;;16.67;40.07;99545.94;5015022;28;20531;-79
2022/05/19 11:35:30;;;;;;;2.72;2.33;;;;;;;16.44;39.89;99559.72;5014151;28;20054;-79
2022/05/19 11:38:28;;;;;;;5.38;2.22;;;;;;;16.36;40.20;99551.13;5014295;28;20073;-78
2022/05/19 11:41:07;;;;;;;4.47;2.53;;;;;;;16.57;40.29;99558.50;5014222;28;20069;-78
2022/05/19 11:44:00;;;;;;;9.65;5.95;;;;;;;16.91;40.02;99557.63;5014514;28;20060;-78
2022/05/19 11:47:01;;;;;;;5.53;2.90;;;;;;;17.08;39.41;99543.09;5014783;28;20108;-78
2022/05/19 11:55:47;;;;;;;2.90;2.30;;;;;;;16.74;40.82;99538.75;5014565;28;20144;-76
2022/05/19 11:58:24;;;;;;;3.90;2.10;;;;;;;16.70;40.80;99516.00;5013798;28;20054;-77
2022/05/19 12:01:01;;;;;;;4.70;2.30;;;;;;;16.77;40.78;99518.41;5013928;28;20116;-77
2022/05/19 12:03:36;;;;;;;4.03;2.50;;;;;;;16.86;40.29;99527.84;4997060;28;20065;-79
2022/05/19 12:06:18;;;;;;;4.97;2.22;;;;;;;16.87;39.04;99528.75;5013955;28;20054;-82
2022/05/19 12:08:55;;;;;;;4.63;2.50;;;;;;;17.24;39.23;99523.28;5015348;28;20056;-78
2022/05/19 12:11:52;;;;;;;6.20;2.15;;;;;;;17.57;38.52;99523.16;5014068;28;20156;-79
2022/05/19 12:14:27;;;;;;;2.30;2.10;;;;;;;17.39;39.00;99516.69;4999419;28;20143;-80
2022/05/19 12:16:59;;;;;;;4.45;2.00;;;;;;;17.07;39.84;99529.03;5000393;28;20058;-78
2022/05/19 12:19:40;;;;;;;3.33;1.80;;;;;;;17.16;39.21;99518.25;4983266;28;20624;-78
2022/05/19 12:22:12;;;;;;;4.32;2.40;;;;;;;17.22;38.50;99505.75;5019028;28;20054;-77
2022/05/19 12:25:14;;;;;;;10.70;2.85;;;;;;;16.91;38.66;99494.31;5023109;28;20149;-77
2022/05/19 12:27:53;;;;;;;6.25;2.30;;;;;;;16.92;38.78;99501.31;5005126;28;20058;-78
2022/05/19 12:33:32;;;;;;;4.65;2.42;;;;;;;17.08;39.04;99514.94;5018169;28;20557;-77